Terminal Aerodrome Forecast
Issued by NWS Wakefield, VA

Home | Current Version | Previous Version | Text Only | Print | Product List | Glossary On
Versions: 1 2 3 4 5 6 7 8 9 10 11 12 13 14 15
738
FTUS41 KAKQ 191751 RRA
TAFRIC
TAF
KRIC 191751Z 1918/2018 30018G30KT P6SM SCT060
     FM200000 32012G20KT P6SM SKC
     FM200500 32006KT P6SM SKC
     FM201200 33012G17KT P6SM SKC=

USA.gov is the U.S. government's official web portal to all federal, state and local government web resources and services.